createdAt,value
2017-10-25T00:00:04.282Z,8.40
2017-10-25T00:02:31.892Z,3.20
2017-10-25T00:04:59.344Z,4.60
2017-10-25T00:07:26.894Z,4.83
2017-10-25T00:09:54.479Z,4.03
2017-10-25T00:12:21.890Z,4.45
2017-10-25T00:14:49.389Z,4.20
2017-10-25T00:17:17.066Z,5.25
2017-10-25T00:19:44.572Z,4.37
2017-10-25T00:22:12.064Z,3.58
2017-10-25T00:24:39.628Z,3.53
2017-10-25T00:27:07.114Z,3.60
2017-10-25T00:29:34.642Z,3.67
2017-10-25T00:32:02.121Z,6.37
2017-10-25T00:34:29.624Z,3.87
2017-10-25T00:36:57.129Z,4.20
2017-10-25T00:39:24.711Z,5.30
2017-10-25T00:41:52.172Z,4.07
2017-10-25T00:44:19.681Z,4.00
2017-10-25T00:46:47.246Z,3.63
2017-10-25T00:49:14.704Z,3.20
2017-10-25T00:51:42.222Z,3.30
2017-10-25T00:54:09.701Z,3.63
2017-10-25T00:56:37.136Z,2.97
2017-10-25T00:59:04.588Z,5.10
2017-10-25T01:01:32.089Z,3.60
2017-10-25T01:03:59.661Z,4.07
2017-10-25T01:06:27.735Z,3.57
2017-10-25T01:08:55.393Z,3.90
2017-10-25T01:11:22.826Z,3.00
2017-10-25T01:13:50.269Z,3.90
2017-10-25T01:16:17.789Z,3.70
2017-10-25T01:18:45.361Z,3.60
2017-10-25T01:21:12.819Z,3.00
2017-10-25T01:23:40.348Z,2.70
2017-10-25T01:26:07.843Z,3.30
2017-10-25T01:28:35.383Z,2.90
2017-10-25T01:31:02.899Z,2.90
2017-10-25T01:33:30.488Z,5.10
2017-10-25T01:35:58.039Z,3.30
2017-10-25T01:38:25.510Z,3.50
2017-10-25T01:40:53.119Z,3.40
2017-10-25T01:43:20.576Z,3.17
2017-10-25T01:45:48.222Z,4.10
2017-10-25T01:48:16.419Z,2.50
2017-10-25T01:50:43.868Z,3.17
2017-10-25T01:53:11.406Z,3.10
2017-10-25T01:55:38.891Z,4.20
2017-10-25T01:58:06.486Z,3.87
2017-10-25T02:00:34.140Z,3.07
2017-10-25T02:03:01.659Z,3.75
2017-10-25T02:05:29.120Z,3.50
2017-10-25T02:07:56.612Z,4.67
2017-10-25T02:10:24.703Z,2.78
2017-10-25T02:12:52.300Z,4.23
2017-10-25T02:15:20.172Z,2.97
2017-10-25T02:17:47.760Z,3.97
2017-10-25T02:20:15.320Z,4.60
2017-10-25T02:22:42.886Z,4.20
2017-10-25T02:25:10.347Z,2.93
2017-10-25T02:27:37.917Z,2.83
2017-10-25T02:30:05.569Z,3.17
2017-10-25T02:32:33.030Z,4.67
2017-10-25T02:35:00.490Z,2.97
2017-10-25T02:37:28.016Z,3.03
2017-10-25T02:39:55.513Z,7.23
2017-10-25T02:42:23.096Z,3.67
2017-10-25T02:44:50.613Z,3.00
2017-10-25T02:47:18.152Z,3.47
2017-10-25T02:49:45.631Z,4.40
2017-10-25T02:52:13.189Z,3.10
2017-10-25T02:54:40.718Z,3.53
2017-10-25T02:57:08.145Z,3.43
2017-10-25T02:59:35.942Z,2.70
2017-10-25T03:02:03.624Z,3.10
2017-10-25T03:04:31.073Z,4.23
2017-10-25T03:06:59.223Z,3.83
2017-10-25T03:09:26.757Z,2.90
2017-10-25T03:11:54.265Z,3.60
2017-10-25T03:14:21.980Z,2.73
2017-10-25T03:16:49.385Z,2.73
2017-10-25T03:19:16.862Z,3.40
2017-10-25T03:21:44.392Z,4.23
2017-10-25T03:24:11.819Z,3.25
2017-10-25T03:26:39.406Z,2.70
2017-10-25T03:29:06.895Z,2.53
2017-10-25T03:31:34.440Z,3.00
2017-10-25T03:34:01.894Z,3.27
2017-10-25T03:36:29.459Z,3.40
2017-10-25T03:38:57.405Z,4.17
2017-10-25T03:41:24.819Z,2.83
2017-10-25T03:43:52.336Z,3.33
2017-10-25T03:46:19.879Z,10.20
2017-10-25T03:48:47.470Z,10.83
2017-10-25T03:51:15.031Z,7.15
2017-10-25T03:53:42.686Z,6.85
2017-10-25T03:56:10.110Z,4.37
2017-10-25T03:58:37.583Z,2.90
2017-10-25T04:01:05.275Z,7.40
2017-10-25T04:03:32.933Z,3.77
2017-10-25T04:06:00.503Z,2.40
2017-10-25T04:08:28.218Z,4.00
2017-10-25T04:10:55.638Z,3.47
2017-10-25T04:13:23.269Z,6.70
2017-10-25T04:15:50.752Z,2.83
2017-10-25T04:18:18.285Z,6.13
2017-10-25T04:20:46.148Z,5.83
2017-10-25T04:23:13.706Z,3.70
2017-10-25T04:25:41.250Z,2.70
2017-10-25T04:28:08.715Z,2.93
2017-10-25T04:30:36.224Z,3.27
2017-10-25T04:33:03.711Z,4.90
2017-10-25T04:35:31.176Z,6.43
2017-10-25T04:37:58.632Z,8.17
2017-10-25T04:40:26.229Z,4.50
2017-10-25T04:42:53.725Z,7.83
2017-10-25T04:45:21.209Z,4.67
2017-10-25T04:47:48.644Z,4.20
2017-10-25T04:50:16.224Z,6.32
2017-10-25T04:52:43.775Z,4.10
2017-10-25T04:55:11.345Z,4.40
2017-10-25T04:57:39.433Z,4.80
2017-10-25T05:00:06.884Z,6.90
2017-10-25T05:02:34.368Z,7.27
2017-10-25T05:05:01.977Z,12.90
2017-10-25T05:07:29.457Z,6.03
2017-10-25T05:09:57.132Z,7.43
2017-10-25T05:12:24.670Z,7.40
2017-10-25T05:14:52.228Z,10.30
2017-10-25T05:17:19.692Z,10.10
2017-10-25T05:19:51.934Z,6.97
2017-10-25T05:22:19.389Z,5.32
2017-10-25T05:24:46.852Z,5.93
2017-10-25T05:27:14.365Z,4.23
2017-10-25T05:29:41.831Z,7.70
2017-10-25T05:32:09.330Z,4.67
2017-10-25T05:34:36.799Z,4.10
2017-10-25T05:37:04.388Z,5.23
2017-10-25T05:39:31.877Z,5.47
2017-10-25T05:41:59.372Z,4.40
2017-10-25T05:44:26.851Z,5.67
2017-10-25T05:46:54.314Z,4.07
2017-10-25T05:49:21.836Z,5.27
2017-10-25T05:51:50.492Z,4.80
2017-10-25T05:54:17.918Z,3.90
2017-10-25T05:56:45.439Z,5.90
2017-10-25T05:59:12.913Z,6.13
2017-10-25T06:01:40.622Z,6.32
2017-10-25T06:04:08.303Z,5.65
2017-10-25T06:06:35.789Z,5.60
2017-10-25T06:09:03.279Z,8.30
2017-10-25T06:11:30.883Z,4.73
2017-10-25T06:13:58.495Z,4.65
2017-10-25T06:16:25.990Z,6.57
2017-10-25T06:18:53.453Z,5.50
2017-10-25T06:21:20.906Z,6.20
2017-10-25T06:23:48.368Z,5.07
2017-10-25T06:26:15.826Z,6.50
2017-10-25T06:28:43.344Z,6.60
2017-10-25T06:31:10.900Z,4.30
2017-10-25T06:33:38.561Z,6.72
2017-10-25T06:36:06.110Z,4.13
2017-10-25T06:38:33.541Z,5.60
2017-10-25T06:41:01.026Z,5.10
2017-10-25T06:43:28.648Z,4.80
2017-10-25T06:45:56.287Z,6.00
2017-10-25T06:48:23.843Z,6.23
2017-10-25T06:50:51.328Z,7.70
2017-10-25T06:53:18.783Z,5.80
2017-10-25T06:55:46.316Z,7.10
2017-10-25T06:58:13.733Z,7.33
2017-10-25T07:00:41.357Z,7.60
2017-10-25T07:03:08.936Z,7.10
2017-10-25T07:05:36.493Z,7.23
2017-10-25T07:08:04.062Z,10.90
2017-10-25T07:10:31.560Z,7.75
2017-10-25T07:12:59.095Z,9.10
2017-10-25T07:15:26.707Z,9.52
2017-10-25T07:17:54.683Z,8.50
2017-10-25T07:20:22.128Z,9.37
2017-10-25T07:22:49.590Z,9.60
2017-10-25T07:25:17.075Z,9.80
2017-10-25T07:27:44.725Z,9.53
2017-10-25T07:30:12.183Z,9.77
2017-10-25T07:32:39.963Z,8.50
2017-10-25T07:35:07.566Z,6.97
2017-10-25T07:37:35.063Z,10.40
2017-10-25T07:40:02.577Z,8.83
2017-10-25T07:42:30.293Z,12.27
2017-10-25T07:44:57.928Z,12.37
2017-10-25T07:47:25.434Z,10.30
2017-10-25T07:49:52.950Z,9.60
2017-10-25T07:52:20.752Z,8.60
2017-10-25T07:54:48.278Z,7.83
2017-10-25T07:57:15.845Z,8.33
2017-10-25T07:59:43.308Z,10.90
2017-10-25T08:02:10.902Z,11.37
2017-10-25T08:04:38.438Z,10.87
2017-10-25T08:07:05.941Z,12.40
2017-10-25T08:09:33.461Z,8.75
2017-10-25T08:12:00.996Z,10.17
2017-10-25T08:14:28.546Z,7.93
2017-10-25T08:16:56.098Z,7.23
2017-10-25T08:19:23.564Z,10.00
2017-10-25T08:21:51.035Z,8.03
2017-10-25T08:24:18.625Z,8.07
2017-10-25T08:26:46.113Z,8.00
2017-10-25T08:29:13.593Z,9.27
2017-10-25T08:31:41.281Z,8.73
2017-10-25T08:34:08.754Z,9.33
2017-10-25T08:36:36.201Z,10.00
2017-10-25T08:39:03.667Z,9.67
2017-10-25T08:41:31.104Z,8.77
2017-10-25T08:43:58.629Z,11.87
2017-10-25T08:46:26.417Z,10.00
2017-10-25T08:48:53.908Z,7.37
2017-10-25T08:51:21.436Z,7.67
2017-10-25T08:53:49.048Z,9.17
2017-10-25T08:56:16.565Z,9.83
2017-10-25T08:58:44.076Z,8.00
2017-10-25T09:01:11.564Z,9.00
2017-10-25T09:03:39.020Z,7.13
2017-10-25T09:06:06.463Z,7.60
2017-10-25T09:08:34.059Z,7.23
2017-10-25T09:11:01.620Z,8.00
2017-10-25T09:13:29.170Z,8.43
2017-10-25T09:18:29.176Z,8.70
2017-10-25T09:20:56.812Z,7.50
2017-10-25T09:23:24.298Z,7.35
2017-10-25T09:25:51.722Z,6.15
2017-10-25T09:28:19.368Z,5.43
2017-10-25T09:30:46.915Z,7.80
2017-10-25T09:33:14.901Z,7.00
2017-10-25T09:35:42.428Z,6.60
2017-10-25T09:38:09.949Z,5.80
2017-10-25T09:40:37.462Z,6.80
2017-10-25T09:43:05.019Z,6.40
2017-10-25T09:45:32.650Z,6.67
2017-10-25T09:48:00.155Z,6.37
2017-10-25T09:50:27.584Z,7.40
2017-10-25T09:52:55.107Z,6.17
2017-10-25T09:55:22.623Z,5.27
2017-10-25T09:57:50.221Z,5.80
2017-10-25T10:00:17.863Z,4.67
2017-10-25T10:02:45.300Z,5.90
2017-10-25T10:05:12.763Z,5.90
2017-10-25T10:07:40.489Z,6.23
2017-10-25T10:10:07.920Z,7.37
2017-10-25T10:12:35.394Z,5.40
2017-10-25T10:15:03.585Z,5.63
2017-10-25T10:17:31.735Z,5.80
2017-10-25T10:19:59.284Z,5.70
2017-10-25T10:22:27.231Z,6.20
2017-10-25T10:24:54.722Z,6.43
2017-10-25T10:27:22.213Z,7.50
2017-10-25T10:29:50.070Z,6.67
2017-10-25T10:32:17.650Z,6.23
2017-10-25T10:34:45.251Z,6.77
2017-10-25T10:37:13.204Z,6.30
2017-10-25T10:39:40.676Z,5.30
2017-10-25T10:42:08.180Z,5.80
2017-10-25T10:44:35.824Z,4.67
2017-10-25T10:47:03.366Z,6.13
2017-10-25T10:49:32.899Z,5.23
2017-10-25T10:52:00.919Z,4.60
2017-10-25T10:54:28.513Z,5.30
2017-10-25T10:56:56.058Z,4.77
2017-10-25T10:59:23.619Z,5.00
2017-10-25T11:01:51.342Z,4.60
2017-10-25T11:04:18.797Z,5.20
2017-10-25T11:06:46.365Z,4.93
2017-10-25T11:09:14.783Z,4.57
2017-10-25T11:11:42.335Z,4.90
2017-10-25T11:14:10.195Z,4.70
2017-10-25T11:16:37.691Z,6.27
2017-10-25T11:19:06.011Z,5.22
2017-10-25T11:21:33.609Z,5.03
2017-10-25T11:24:01.101Z,4.73
2017-10-25T11:26:28.523Z,4.80
2017-10-25T11:28:56.076Z,4.93
2017-10-25T11:31:27.497Z,4.90
2017-10-25T11:33:54.963Z,5.20
2017-10-25T11:36:22.616Z,6.90
2017-10-25T11:38:50.116Z,5.50
2017-10-25T11:41:17.616Z,4.83
2017-10-25T11:43:45.065Z,5.40
2017-10-25T11:46:12.574Z,4.97
2017-10-25T11:48:40.066Z,4.83
2017-10-25T11:51:07.613Z,5.10
2017-10-25T11:53:35.191Z,4.83
2017-10-25T11:56:02.919Z,5.70
2017-10-25T11:58:30.452Z,6.40
2017-10-25T12:00:59.497Z,4.30
2017-10-25T12:03:26.964Z,4.60
2017-10-25T12:05:55.200Z,4.30
2017-10-25T12:08:22.657Z,4.43
2017-10-25T12:10:50.104Z,4.70
2017-10-25T12:13:17.780Z,5.47
2017-10-25T12:15:45.229Z,5.40
2017-10-25T12:18:12.710Z,4.60
2017-10-25T12:20:40.352Z,4.23
2017-10-25T12:23:07.897Z,5.27
2017-10-25T12:25:35.441Z,4.03
2017-10-25T12:28:03.040Z,5.13
2017-10-25T12:30:30.614Z,4.77
2017-10-25T12:32:59.009Z,5.72
2017-10-25T12:35:27.091Z,4.40
2017-10-25T12:37:54.545Z,4.20
2017-10-25T12:40:22.057Z,4.80
2017-10-25T12:42:49.724Z,4.80
2017-10-25T12:45:17.327Z,4.83
2017-10-25T12:47:45.682Z,4.83
2017-10-25T12:50:13.155Z,4.33
2017-10-25T12:52:40.615Z,4.23
2017-10-25T12:55:08.148Z,4.63
2017-10-25T12:57:35.743Z,5.20
2017-10-25T13:00:03.254Z,7.43
2017-10-25T13:02:30.737Z,4.53
2017-10-25T13:04:58.299Z,5.00
2017-10-25T13:07:25.806Z,4.07
2017-10-25T13:09:53.347Z,4.37
2017-10-25T13:15:33.523Z,4.80
2017-10-25T13:18:08.338Z,4.07
2017-10-25T13:20:35.773Z,4.20
2017-10-25T13:23:03.347Z,4.30
2017-10-25T13:25:31.392Z,4.40
2017-10-25T13:27:58.901Z,3.67
2017-10-25T13:30:26.448Z,3.60
2017-10-25T13:32:53.920Z,4.50
2017-10-25T13:35:21.610Z,4.07
2017-10-25T13:37:49.439Z,4.83
2017-10-25T13:40:18.030Z,4.50
2017-10-25T13:42:45.528Z,4.62
2017-10-25T13:45:13.017Z,4.35
2017-10-25T13:47:40.638Z,5.07
2017-10-25T13:50:08.144Z,4.67
2017-10-25T13:52:35.858Z,4.60
2017-10-25T13:55:03.418Z,4.90
2017-10-25T13:57:30.969Z,4.50
2017-10-25T13:59:58.425Z,3.97
2017-10-25T14:02:26.169Z,4.10
2017-10-25T14:04:53.704Z,3.93
2017-10-25T14:07:21.135Z,4.13
2017-10-25T14:09:48.992Z,5.13
2017-10-25T14:12:16.446Z,3.87
2017-10-25T14:14:43.927Z,4.80
2017-10-25T14:17:11.514Z,4.40
2017-10-25T14:19:39.067Z,3.70
2017-10-25T14:22:06.549Z,4.33
2017-10-25T14:24:34.101Z,5.62
2017-10-25T14:27:13.371Z,5.50
2017-10-25T14:29:40.978Z,6.37
2017-10-25T14:32:10.340Z,5.50
2017-10-25T14:34:37.836Z,4.40
2017-10-25T14:37:05.608Z,4.00
2017-10-25T14:39:33.065Z,3.80
2017-10-25T14:42:01.554Z,3.77
2017-10-25T14:44:29.149Z,3.90
2017-10-25T14:46:56.690Z,4.80
2017-10-25T14:49:24.184Z,3.90
2017-10-25T14:51:51.680Z,4.87
2017-10-25T14:54:19.149Z,3.78
2017-10-25T14:56:46.612Z,4.10
2017-10-25T14:59:14.337Z,4.30
2017-10-25T15:01:41.834Z,4.13
2017-10-25T15:04:09.279Z,2.92
2017-10-25T15:06:36.954Z,2.50
2017-10-25T15:09:04.506Z,2.40
2017-10-25T15:11:32.143Z,2.27
2017-10-25T15:13:59.723Z,3.00
2017-10-25T15:16:27.231Z,2.30
2017-10-25T15:18:54.899Z,2.70
2017-10-25T15:21:22.420Z,4.53
2017-10-25T15:23:49.891Z,3.27
2017-10-25T15:26:17.464Z,3.15
2017-10-25T15:28:44.988Z,3.30
2017-10-25T15:31:12.573Z,3.10
2017-10-25T15:33:40.343Z,2.80
2017-10-25T15:36:07.850Z,3.00
2017-10-25T15:38:35.306Z,3.87
2017-10-25T15:41:02.891Z,2.93
2017-10-25T15:43:30.486Z,3.87
2017-10-25T15:45:58.074Z,3.93
2017-10-25T15:48:25.678Z,3.30
2017-10-25T15:50:53.201Z,3.30
2017-10-25T15:53:20.771Z,3.20
2017-10-25T15:55:48.335Z,3.10
2017-10-25T15:58:16.441Z,3.30
2017-10-25T16:00:44.014Z,3.63
2017-10-25T16:03:11.673Z,2.90
2017-10-25T16:05:39.235Z,3.47
2017-10-25T16:08:07.017Z,2.90
2017-10-25T16:10:34.557Z,2.75
2017-10-25T16:13:02.035Z,3.10
2017-10-25T16:15:29.492Z,3.13
2017-10-25T16:17:57.113Z,2.97
2017-10-25T16:20:24.675Z,4.50
2017-10-25T16:22:52.148Z,2.83
2017-10-25T16:25:19.625Z,2.97
2017-10-25T16:27:47.264Z,3.17
2017-10-25T16:30:14.701Z,2.85
2017-10-25T16:32:42.153Z,3.20
2017-10-25T16:35:09.821Z,3.47
2017-10-25T16:37:37.387Z,7.67
2017-10-25T16:40:04.918Z,3.23
2017-10-25T16:42:32.561Z,3.40
2017-10-25T16:45:00.033Z,4.30
2017-10-25T16:47:27.640Z,5.13
2017-10-25T16:49:55.190Z,5.97
2017-10-25T16:52:22.672Z,4.82
2017-10-25T16:54:50.287Z,4.30
2017-10-25T16:57:17.790Z,5.13
2017-10-25T16:59:45.340Z,4.30
2017-10-25T17:02:12.893Z,4.18
2017-10-25T17:04:40.639Z,4.73
2017-10-25T17:07:08.313Z,4.23
2017-10-25T17:09:35.890Z,5.97
2017-10-25T17:12:03.392Z,4.30
2017-10-25T17:14:30.909Z,4.77
2017-10-25T17:16:58.449Z,4.57
2017-10-25T17:19:25.975Z,4.37
2017-10-25T17:21:53.523Z,4.23
2017-10-25T17:24:21.185Z,5.05
2017-10-25T17:26:48.945Z,4.23
2017-10-25T17:29:16.520Z,4.53
2017-10-25T17:31:43.979Z,3.83
2017-10-25T17:34:11.747Z,5.37
2017-10-25T17:36:39.521Z,5.63
2017-10-25T17:39:07.221Z,4.80
2017-10-25T17:41:34.770Z,5.00
2017-10-25T17:44:02.375Z,5.43
2017-10-25T17:46:29.926Z,4.90
2017-10-25T17:48:57.526Z,5.80
2017-10-25T17:51:25.470Z,5.63
2017-10-25T17:53:53.018Z,5.30
2017-10-25T17:56:20.596Z,5.32
2017-10-25T17:58:48.070Z,5.43
2017-10-25T18:01:15.604Z,5.03
2017-10-25T18:03:43.312Z,5.57
2017-10-25T18:06:10.870Z,4.70
2017-10-25T18:08:38.289Z,5.17
2017-10-25T18:11:05.988Z,4.93
2017-10-25T18:13:33.569Z,6.20
2017-10-25T18:16:03.083Z,6.27
2017-10-25T18:27:19.906Z,5.50
2017-10-25T18:29:53.706Z,4.63
2017-10-25T18:32:21.348Z,5.47
2017-10-25T18:34:49.032Z,5.60
2017-10-25T18:37:16.733Z,4.67
2017-10-25T18:39:44.319Z,5.90
2017-10-25T18:42:12.250Z,7.93
2017-10-25T18:44:39.802Z,5.90
2017-10-25T18:47:07.399Z,5.57
2017-10-25T18:49:34.990Z,5.47
2017-10-25T18:52:03.095Z,5.47
2017-10-25T18:54:30.709Z,5.80
2017-10-25T18:56:58.372Z,5.60
2017-10-25T18:59:25.907Z,7.13
2017-10-25T19:01:53.687Z,8.53
2017-10-25T19:04:21.304Z,7.47
2017-10-25T19:06:48.840Z,6.40
2017-10-25T19:09:16.450Z,5.73
2017-10-25T19:11:44.081Z,6.60
2017-10-25T19:14:11.692Z,5.70
2017-10-25T19:16:39.321Z,5.30
2017-10-25T19:19:06.891Z,5.20
2017-10-25T19:21:34.357Z,6.23
2017-10-25T19:24:01.929Z,6.30
2017-10-25T19:26:29.697Z,6.20
2017-10-25T19:28:57.209Z,6.97
2017-10-25T19:31:24.913Z,4.90
2017-10-25T19:33:52.476Z,5.17
2017-10-25T19:36:20.203Z,5.33
2017-10-25T19:38:47.933Z,5.70
2017-10-25T19:41:15.596Z,4.93
2017-10-25T19:43:43.064Z,5.00
2017-10-25T19:46:11.033Z,4.37
2017-10-25T19:48:38.572Z,4.57
2017-10-25T19:51:06.103Z,5.60
2017-10-25T19:53:33.783Z,5.17
2017-10-25T19:56:01.299Z,4.40
2017-10-25T19:58:28.844Z,4.00
2017-10-25T20:00:56.849Z,4.40
2017-10-25T20:03:24.411Z,4.00
2017-10-25T20:05:51.959Z,5.03
2017-10-25T20:08:20.267Z,4.22
2017-10-25T20:10:47.981Z,5.57
2017-10-25T20:13:15.778Z,4.22
2017-10-25T20:15:43.413Z,4.40
2017-10-25T20:18:11.001Z,5.03
2017-10-25T20:20:38.590Z,3.90
2017-10-25T20:23:06.928Z,4.73
2017-10-25T20:25:34.504Z,3.50
2017-10-25T20:28:02.039Z,3.63
2017-10-25T20:30:29.623Z,4.37
2017-10-25T20:32:57.189Z,4.07
2017-10-25T20:35:24.706Z,4.80
2017-10-25T20:37:52.836Z,5.37
2017-10-25T20:40:20.344Z,6.72
2017-10-25T20:42:47.875Z,5.67
2017-10-25T20:45:15.449Z,4.87
2017-10-25T20:47:43.024Z,5.57
2017-10-25T20:50:10.607Z,5.07
2017-10-25T20:52:38.216Z,4.97
2017-10-25T20:55:05.816Z,5.23
2017-10-25T20:57:33.353Z,5.03
2017-10-25T21:00:00.896Z,5.03
2017-10-25T21:02:29.151Z,4.40
2017-10-25T21:04:56.775Z,4.50
2017-10-25T21:07:24.479Z,5.07
2017-10-25T21:09:51.973Z,4.30
2017-10-25T21:12:19.588Z,4.90
2017-10-25T21:14:47.210Z,5.97
2017-10-25T21:17:14.771Z,4.10
2017-10-25T21:19:42.248Z,7.80
2017-10-25T21:22:09.876Z,6.00
2017-10-25T21:24:37.349Z,4.97
2017-10-25T21:27:05.767Z,5.43
2017-10-25T21:29:33.261Z,5.50
2017-10-25T21:32:00.897Z,5.60
2017-10-25T21:34:28.415Z,4.30
2017-10-25T21:36:56.033Z,4.57
2017-10-25T21:39:23.513Z,4.13
2017-10-25T21:41:51.012Z,5.13
2017-10-25T21:44:18.593Z,5.90
2017-10-25T21:46:46.161Z,6.07
2017-10-25T21:49:13.601Z,6.57
2017-10-25T21:51:41.170Z,5.10
2017-10-25T21:54:08.750Z,4.27
2017-10-25T21:56:36.405Z,4.27
2017-10-25T21:59:03.877Z,4.87
2017-10-25T22:01:31.464Z,4.77
2017-10-25T22:03:58.881Z,5.53
2017-10-25T22:06:26.442Z,5.03
2017-10-25T22:08:54.198Z,5.30
2017-10-25T22:11:21.695Z,4.60
2017-10-25T22:13:49.290Z,4.17
2017-10-25T22:16:18.660Z,4.27
2017-10-25T22:18:46.195Z,4.75
2017-10-25T22:21:13.708Z,5.25
2017-10-25T22:23:41.138Z,4.87
2017-10-25T22:26:08.639Z,6.23
2017-10-25T22:28:36.233Z,6.30
2017-10-25T22:31:03.876Z,5.87
2017-10-25T22:33:31.360Z,9.87
2017-10-25T22:35:58.924Z,4.87
2017-10-25T22:38:26.388Z,4.60
2017-10-25T22:40:53.935Z,4.70
2017-10-25T22:43:21.990Z,4.13
2017-10-25T22:45:49.452Z,4.20
2017-10-25T22:48:17.021Z,3.62
2017-10-25T22:50:45.103Z,3.58
2017-10-25T22:53:12.773Z,6.57
2017-10-25T22:55:40.252Z,4.97
2017-10-25T22:58:07.762Z,5.60
2017-10-25T23:00:35.397Z,5.07
2017-10-25T23:03:03.027Z,5.13
2017-10-25T23:05:30.622Z,4.23
2017-10-25T23:07:58.184Z,5.00
2017-10-25T23:10:25.641Z,5.97
2017-10-25T23:12:53.182Z,4.70
2017-10-25T23:15:20.763Z,6.03
2017-10-25T23:17:48.343Z,4.20
2017-10-25T23:20:15.788Z,3.83
2017-10-25T23:22:43.348Z,5.60
2017-10-25T23:25:10.941Z,7.10
2017-10-25T23:27:38.446Z,4.27
2017-10-25T23:30:06.516Z,4.90
2017-10-25T23:32:33.979Z,3.80
2017-10-25T23:35:01.461Z,4.70
2017-10-25T23:37:28.895Z,4.20
2017-10-25T23:39:56.340Z,4.50
2017-10-25T23:42:23.839Z,7.57
2017-10-25T23:44:51.306Z,5.20
2017-10-25T23:47:18.751Z,3.93
2017-10-25T23:49:46.208Z,4.80
2017-10-25T23:52:13.670Z,5.03
2017-10-25T23:54:41.150Z,4.87
2017-10-25T23:57:08.640Z,6.57
2017-10-25T23:59:36.091Z,6.80
